Portada
METAR-TAF:

METAR-TAF

Aeroports :

Malaca, Malàisia

latitud: 02-16N, longitud: 102-15E, altitud: 11 m

Observació

L'informe es va fer fa 33 minuts, a les 08:00 UTC
Vent 4 kt del Sud, variant entre Est i Oest/Sud-Oest
Temperatura 31°C
Humitat 75%
Pressió 1007 hPa
Visibilitat 10 km o més
Núvols disperses a una alçada de 2000 ft

METAR: WMKM 080800Z 19004KT 100V250 9999 SCT020 31/26 Q1007

Hora: 16:33 (08:33 UTC)

Pronòstic

L'informe es va fer fa 3 hores i 33 minuts, a les 05:00 UTC
Pronòstic vàlid del 08 a les 06 UTC al 09 a les 06 UTC
Vent 5 kt del Nord-Est
Visibilitat 10 km o més
Escasses núvols a una alçada de 2000 ft
Temporalment
l' 08 a les 06 UTC al 08 a les 12 UTC
Vent 6 kt del Sud/Sud-Est amb ràfegues de 15 kt
Visibilitat: 3000 m
Escasses núvols a una alçada de 1600 ft, Cumulonimbus.
Núvols disperses a una alçada de 2000 ft
tempesta, pluja

TAF: WMKM 080500Z 0806/0906 04005KT 9999 FEW020 TEMPO 0806/0812 16006G15KT 3000 TSRA FEW016CB SCT020

Observacions i pronòstics meteorològics de més de 4000 aeroports (METAR i TAF).

Les estacions disponibles són els punts grocs i vermells al mapa.

Posi el ratolí al punt desitjat per veure el nom de l'estació.

Feu clic per veure les observacions i els pronòstics meteorològics.

Per canviar el mapa: feu clic els botons verds amb una creu de color negre per apropar; al botó verd amb un guió per allunyar la imatge; o en les fletxes verdes per a mapes adjacents.


METAR-TAF: